Time;durP1;ratioP1;P1;durP2;ratioP2;P2;SDS_P1;SDS_P2;PMS_P1;PMS_P2;Temp;Humidity;BMP_temperature;BMP_pressure;BME280_temperature;BME280_humidity;BME280_pressure;Samples;Min_cycle;Max_cycle;Signal;HPM_P1;HPM_P2
2022/12/03 00:01:14;;;;;;;35.47;13.45;;;1.80;99.90;;;;;;5089078;28;20040;-63
2022/12/03 00:03:42;;;;;;;30.33;12.63;;;1.80;99.90;;;;;;5090182;28;20408;-64
2022/12/03 00:06:09;;;;;;;29.98;11.98;;;1.70;99.90;;;;;;5091095;28;20036;-65
2022/12/03 00:08:35;;;;;;;35.85;13.15;;;1.70;99.90;;;;;;5088994;28;20064;-66
2022/12/03 00:11:02;;;;;;;25.95;12.00;;;1.80;99.90;;;;;;5088928;28;20036;-65
2022/12/03 00:13:29;;;;;;;19.10;8.20;;;1.80;99.90;;;;;;5089833;28;20089;-63
2022/12/03 00:15:55;;;;;;;23.63;9.98;;;1.80;99.90;;;;;;5087849;28;20517;-64
2022/12/03 00:18:22;;;;;;;28.15;10.63;;;1.80;99.90;;;;;;5069363;28;20114;-64
2022/12/03 00:20:49;;;;;;;24.27;9.30;;;1.80;99.90;;;;;;5082920;28;20047;-60
2022/12/03 00:23:16;;;;;;;32.78;11.38;;;1.80;99.90;;;;;;5079946;28;20040;-60
2022/12/03 00:25:42;;;;;;;23.55;8.82;;;1.80;99.90;;;;;;5084540;28;20066;-60
2022/12/03 00:28:09;;;;;;;30.60;12.10;;;1.80;99.90;;;;;;5086850;28;20035;-60
2022/12/03 00:30:36;;;;;;;27.55;11.05;;;1.80;99.90;;;;;;5082955;28;20124;-60
2022/12/03 00:33:03;;;;;;;25.45;11.07;;;1.80;99.90;;;;;;5091468;28;20525;-60
2022/12/03 00:35:29;;;;;;;24.48;11.43;;;1.90;99.90;;;;;;5084245;28;20036;-60
2022/12/03 00:37:56;;;;;;;30.20;11.07;;;1.90;99.90;;;;;;5083499;28;20062;-60
2022/12/03 00:40:23;;;;;;;26.90;10.23;;;1.90;99.90;;;;;;5083245;28;20051;-60
2022/12/03 00:42:49;;;;;;;28.92;11.50;;;1.90;99.90;;;;;;5088601;28;20051;-60
2022/12/03 00:45:16;;;;;;;30.25;11.15;;;2.00;99.90;;;;;;5081327;28;20036;-60
2022/12/03 00:47:43;;;;;;;27.13;11.35;;;2.00;99.90;;;;;;5090277;28;20036;-60
2022/12/03 00:50:10;;;;;;;27.50;10.90;;;1.90;99.90;;;;;;5087526;28;20089;-60
2022/12/03 00:52:37;;;;;;;;;;;1.90;99.90;;;;;;5084351;28;20488;-60
2022/12/03 00:55:04;;;;;;;25.83;9.98;;;1.90;99.90;;;;;;5082136;28;19972;-60
2022/12/03 00:57:31;;;;;;;23.15;9.70;;;1.90;99.90;;;;;;5090744;28;20036;-60
2022/12/03 00:59:58;;;;;;;18.13;8.13;;;1.80;99.90;;;;;;5075321;28;20036;-60
2022/12/03 01:02:24;;;;;;;18.15;7.45;;;1.90;99.90;;;;;;5090506;28;20066;-60
2022/12/03 01:04:51;;;;;;;18.25;8.65;;;1.90;99.90;;;;;;5070286;28;20079;-60
2022/12/03 01:07:18;;;;;;;18.20;8.13;;;1.80;99.90;;;;;;5084653;28;20488;-60
2022/12/03 01:09:45;;;;;;;18.58;8.52;;;1.80;99.90;;;;;;5086483;28;20059;-60
2022/12/03 01:12:12;;;;;;;14.35;7.55;;;1.70;99.90;;;;;;5081725;28;20492;-60
2022/12/03 01:14:39;;;;;;;21.85;7.97;;;1.70;99.90;;;;;;5082945;28;20058;-60
2022/12/03 01:17:06;;;;;;;19.83;8.70;;;1.70;99.90;;;;;;5090112;28;20460;-60
2022/12/03 01:19:34;;;;;;;20.25;8.68;;;1.80;99.90;;;;;;5082210;28;20329;-60
2022/12/03 01:22:01;;;;;;;21.00;9.43;;;1.90;99.90;;;;;;5089707;28;20089;-60
2022/12/03 01:24:27;;;;;;;19.65;9.15;;;1.90;99.90;;;;;;5082093;28;20097;-60
2022/12/03 01:26:55;;;;;;;23.25;9.40;;;2.20;99.90;;;;;;5081719;28;20103;-60
2022/12/03 01:29:22;;;;;;;20.60;9.10;;;1.90;99.90;;;;;;5089822;28;20458;-60
2022/12/03 01:34:34;;;;;;;22.67;9.27;;;2.00;99.90;;;;;;5076658;28;19923;-60
2022/12/03 01:37:01;;;;;;;12.77;6.40;;;2.10;99.90;;;;;;5085764;28;20032;-60
2022/12/03 01:39:28;;;;;;;16.25;7.15;;;2.00;99.90;;;;;;5082557;28;20036;-61
2022/12/03 01:41:57;;;;;;;13.10;6.13;;;1.90;99.90;;;;;;5073173;28;20549;-60
2022/12/03 01:44:28;;;;;;;17.90;8.43;;;1.90;99.90;;;;;;5085900;28;20067;-60
2022/12/03 01:46:57;;;;;;;15.80;7.18;;;1.80;99.90;;;;;;5084701;28;20097;-60
2022/12/03 01:49:27;;;;;;;18.10;8.13;;;1.60;99.90;;;;;;5082251;28;20067;-60
2022/12/03 01:51:55;;;;;;;18.30;7.82;;;1.70;99.90;;;;;;5084916;28;20063;-60
2022/12/03 01:54:26;;;;;;;17.48;7.78;;;1.60;99.90;;;;;;5090355;28;20101;-60
2022/12/03 01:56:54;;;;;;;20.55;9.52;;;1.60;99.90;;;;;;5082682;28;20061;-60
2022/12/03 01:59:32;;;;;;;17.70;8.60;;;1.60;99.90;;;;;;5083010;28;20058;-60
2022/12/03 02:02:10;;;;;;;22.33;9.00;;;1.60;99.90;;;;;;5080181;28;20050;-60
2022/12/03 02:04:37;;;;;;;24.15;9.50;;;1.60;99.90;;;;;;5090362;28;20051;-60
2022/12/03 02:07:23;;;;;;;17.38;8.00;;;1.60;99.90;;;;;;5081530;28;20039;-60
2022/12/03 02:09:51;;;;;;;17.17;7.00;;;1.70;99.90;;;;;;5077144;28;20119;-60
2022/12/03 02:12:19;;;;;;;;;;;1.70;99.90;;;;;;5080880;28;20044;-60
2022/12/03 02:14:47;;;;;;;15.10;7.28;;;1.60;99.90;;;;;;5087177;28;19920;-60
2022/12/03 02:17:16;;;;;;;15.57;7.63;;;1.70;99.90;;;;;;5078778;28;20028;-60
2022/12/03 02:19:43;;;;;;;17.77;7.90;;;1.60;99.90;;;;;;5074300;28;20568;-60
2022/12/03 02:22:28;;;;;;;18.17;7.43;;;1.70;99.90;;;;;;5069919;28;20094;-60
2022/12/03 02:24:58;;;;;;;15.30;7.22;;;1.60;99.90;;;;;;5067973;28;20083;-60
2022/12/03 02:27:27;;;;;;;18.85;7.05;;;1.60;99.90;;;;;;5070880;28;20094;-60
2022/12/03 02:29:54;;;;;;;19.38;7.35;;;1.70;99.90;;;;;;5071430;28;20040;-60
2022/12/03 02:32:22;;;;;;;;;;;1.60;99.90;;;;;;5078807;28;20508;-60
2022/12/03 02:34:50;;;;;;;18.20;7.83;;;1.70;99.90;;;;;;5069189;28;19963;-60
2022/12/03 02:37:30;;;;;;;13.68;6.53;;;1.60;99.90;;;;;;5066666;28;20094;-60
2022/12/03 02:40:02;;;;;;;17.20;8.18;;;1.70;99.90;;;;;;5068983;28;20048;-60
2022/12/03 02:42:35;;;;;;;16.40;8.38;;;1.60;99.90;;;;;;5072642;28;20036;-60
2022/12/03 02:45:25;;;;;;;20.20;7.97;;;1.60;99.90;;;;;;5080559;28;20044;-60
2022/12/03 02:48:05;;;;;;;19.83;8.90;;;1.60;99.90;;;;;;5085480;28;20044;-60
2022/12/03 02:50:35;;;;;;;18.15;6.82;;;1.60;99.90;;;;;;5093545;28;20040;-60
2022/12/03 02:53:08;;;;;;;15.25;7.07;;;1.60;99.90;;;;;;5087240;28;20501;-60
2022/12/03 02:55:36;;;;;;;15.75;6.82;;;1.60;99.90;;;;;;5081589;28;20044;-60
2022/12/03 02:58:04;;;;;;;14.57;6.90;;;1.60;99.90;;;;;;5092786;28;20595;-60
2022/12/03 03:00:33;;;;;;;14.77;7.25;;;1.60;99.90;;;;;;5094016;28;20040;-60
2022/12/03 03:03:02;;;;;;;15.63;6.65;;;1.70;99.90;;;;;;5088012;28;20119;-60
2022/12/03 03:05:29;;;;;;;14.02;6.63;;;1.70;99.90;;;;;;5090009;28;20109;-60
2022/12/03 03:07:57;;;;;;;;;;;1.60;99.90;;;;;;5092839;28;20568;-60
2022/12/03 03:10:24;;;;;;;16.77;7.10;;;1.70;99.90;;;;;;5093459;28;19920;-60
2022/12/03 03:12:53;;;;;;;23.55;8.75;;;1.70;99.90;;;;;;5083729;28;20048;-60
2022/12/03 03:15:22;;;;;;;20.13;9.65;;;1.70;99.90;;;;;;5085599;28;20090;-60
2022/12/03 03:17:49;;;;;;;22.08;9.07;;;1.70;99.90;;;;;;5082747;28;20085;-60
2022/12/03 03:20:16;;;;;;;21.65;9.05;;;1.70;99.90;;;;;;5085354;28;20043;-60
2022/12/03 03:22:43;;;;;;;22.77;11.00;;;1.70;99.90;;;;;;5086366;28;20044;-60
2022/12/03 03:25:14;;;;;;;25.27;11.45;;;1.80;99.90;;;;;;5085440;28;20089;-60
2022/12/03 03:27:41;;;;;;;24.75;10.43;;;1.80;99.90;;;;;;5079195;28;20439;-60
2022/12/03 03:30:10;;;;;;;22.40;9.63;;;1.90;99.90;;;;;;5083819;28;20029;-60
2022/12/03 03:32:38;;;;;;;19.90;8.75;;;1.90;99.90;;;;;;5061934;28;20082;-60
2022/12/03 03:35:08;;;;;;;21.65;8.93;;;1.90;99.90;;;;;;5092312;28;20044;-60
2022/12/03 03:37:35;;;;;;;19.58;8.23;;;1.90;99.90;;;;;;5078713;28;20033;-60
2022/12/03 03:40:03;;;;;;;13.45;6.80;;;1.90;99.90;;;;;;5085311;28;20040;-61
2022/12/03 03:42:29;;;;;;;20.25;7.82;;;1.90;99.90;;;;;;5050714;28;20044;-61
2022/12/03 03:44:57;;;;;;;19.02;7.78;;;1.90;99.90;;;;;;5054342;28;20098;-60
2022/12/03 03:47:24;;;;;;;19.98;8.35;;;1.80;99.90;;;;;;5071732;28;20493;-60
2022/12/03 03:49:51;;;;;;;18.63;8.15;;;1.80;99.90;;;;;;5077848;28;20120;-60
2022/12/03 03:52:18;;;;;;;;;;;1.70;99.90;;;;;;5082255;28;20034;-60
2022/12/03 03:54:46;;;;;;;16.35;7.07;;;1.80;99.90;;;;;;5071447;28;19960;-60
2022/12/03 03:57:13;;;;;;;14.15;6.88;;;1.80;99.90;;;;;;5077168;28;20044;-60
2022/12/03 03:59:40;;;;;;;16.45;7.45;;;1.70;99.90;;;;;;5092235;28;20381;-60
2022/12/03 04:02:17;;;;;;;13.18;6.45;;;1.70;99.90;;;;;;5076584;28;20075;-60
2022/12/03 04:04:44;;;;;;;13.52;7.30;;;1.70;99.90;;;;;;5072240;28;20481;-60
2022/12/03 04:07:11;;;;;;;16.77;7.13;;;1.70;99.90;;;;;;5067529;28;20093;-61
2022/12/03 04:09:38;;;;;;;14.68;7.03;;;1.70;99.90;;;;;;5072115;28;20068;-60
2022/12/03 04:14:50;;;;;;;15.73;7.70;;;1.70;99.90;;;;;;5074956;28;20043;-60
2022/12/03 04:17:18;;;;;;;15.13;7.18;;;1.60;99.90;;;;;;5083770;28;20056;-60
2022/12/03 04:19:44;;;;;;;24.90;9.10;;;1.60;99.90;;;;;;5072906;28;20052;-60
2022/12/03 04:28:47;;;;;;;19.27;9.02;;;1.50;99.90;;;;;;5070460;28;20449;-60
2022/12/03 04:30:29;;;;;;;19.52;8.55;;;1.60;99.90;;;;;;5070956;28;20064;-60
2022/12/03 04:35:48;;;;;;;16.95;7.78;;;1.60;99.90;;;;;;5072119;28;20043;-60
2022/12/03 04:38:15;;;;;;;20.05;8.52;;;1.50;99.90;;;;;;5091852;28;20071;-60
2022/12/03 04:41:00;;;;;;;17.38;8.00;;;1.60;99.90;;;;;;5075639;28;20558;-60
2022/12/03 04:43:28;;;;;;;18.52;7.82;;;1.50;99.90;;;;;;5078500;28;20078;-60
2022/12/03 04:45:54;;;;;;;;;;;1.50;99.90;;;;;;5071389;28;20129;-60
2022/12/03 04:48:21;;;;;;;21.55;9.13;;;1.50;99.90;;;;;;5076948;28;19926;-60
2022/12/03 04:50:48;;;;;;;17.75;7.63;;;1.50;99.90;;;;;;5073538;28;20062;-60
2022/12/03 04:53:24;;;;;;;19.48;9.05;;;1.60;99.90;;;;;;5090022;28;20066;-60
2022/12/03 04:56:20;;;;;;;22.02;9.52;;;1.60;99.90;;;;;;5108665;22;20056;-63
2022/12/03 04:58:47;;;;;;;19.33;7.97;;;1.60;99.90;;;;;;5102985;28;20105;-63
2022/12/03 05:01:14;;;;;;;14.40;7.30;;;1.60;99.90;;;;;;5097533;28;20036;-63
2022/12/03 05:03:41;;;;;;;14.80;7.53;;;1.50;99.90;;;;;;5092796;28;20450;-63
2022/12/03 05:06:08;;;;;;;18.65;7.75;;;1.50;99.90;;;;;;5067131;28;20044;-63
2022/12/03 05:08:35;;;;;;;18.52;8.65;;;1.50;99.90;;;;;;5099366;28;20119;-63
2022/12/03 05:11:02;;;;;;;17.05;8.07;;;1.50;99.90;;;;;;5062475;28;20444;-63
2022/12/03 05:13:29;;;;;;;15.43;6.63;;;1.50;99.90;;;;;;5086153;28;20044;-63
2022/12/03 05:15:55;;;;;;;19.05;7.35;;;1.60;99.90;;;;;;5091599;28;20486;-63
2022/12/03 05:18:22;;;;;;;19.67;9.52;;;1.60;99.90;;;;;;5098036;28;20047;-63
2022/12/03 05:20:49;;;;;;;20.02;7.80;;;1.60;99.90;;;;;;5105243;28;20456;-63
2022/12/03 05:23:20;;;;;;;23.27;10.48;;;1.70;99.90;;;;;;5102314;28;20035;-63
2022/12/03 05:25:46;;;;;;;;;;;1.70;99.90;;;;;;5112171;28;20078;-63
2022/12/03 05:28:13;;;;;;;24.30;10.50;;;1.80;99.90;;;;;;5108891;28;19959;-63
2022/12/03 05:30:40;;;;;;;27.95;11.40;;;1.80;99.90;;;;;;5072999;28;20079;-63
2022/12/03 05:33:07;;;;;;;24.98;11.40;;;1.80;99.90;;;;;;5089312;28;20086;-63
2022/12/03 05:35:33;;;;;;;28.92;11.90;;;1.90;99.90;;;;;;5085856;28;20074;-63
2022/12/03 05:38:00;;;;;;;21.38;8.63;;;1.80;99.90;;;;;;5075740;28;20485;-63
2022/12/03 05:40:27;;;;;;;24.23;11.63;;;1.90;99.90;;;;;;5091235;28;20044;-63
2022/12/03 05:42:55;;;;;;;23.92;8.30;;;1.90;99.90;;;;;;5089752;28;20078;-63
2022/12/03 05:45:24;;;;;;;22.35;9.73;;;1.90;99.90;;;;;;5090224;28;20051;-63
2022/12/03 05:47:52;;;;;;;22.23;9.77;;;1.90;99.90;;;;;;5067874;28;20076;-63
2022/12/03 05:50:21;;;;;;;25.33;11.38;;;2.00;99.90;;;;;;5081301;28;20048;-63
2022/12/03 05:52:48;;;;;;;27.67;11.98;;;2.00;99.90;;;;;;5089296;28;20036;-63
2022/12/03 05:55:15;;;;;;;24.88;11.15;;;2.00;99.90;;;;;;5089047;28;20166;-63
2022/12/03 05:57:42;;;;;;;24.27;10.93;;;1.90;99.90;;;;;;5086403;28;20029;-63
2022/12/03 06:00:16;;;;;;;27.02;11.02;;;1.90;99.90;;;;;;5097599;28;20508;-63
2022/12/03 06:02:43;;;;;;;26.88;10.82;;;2.00;99.90;;;;;;5088179;28;20033;-63
2022/12/03 06:05:11;;;;;;;26.40;11.35;;;2.00;99.90;;;;;;5089885;28;20139;-63
2022/12/03 06:07:38;;;;;;;28.27;11.93;;;2.00;99.90;;;;;;5090127;28;20048;-63
2022/12/03 06:10:08;;;;;;;23.33;11.15;;;2.10;99.90;;;;;;5090211;28;20036;-63
2022/12/03 06:12:35;;;;;;;26.75;11.82;;;2.10;99.90;;;;;;5080883;28;20036;-63
2022/12/03 06:15:02;;;;;;;28.27;11.88;;;2.10;99.90;;;;;;5090683;28;20071;-63
2022/12/03 06:17:29;;;;;;;26.83;12.82;;;2.10;99.90;;;;;;5090785;28;20420;-63
2022/12/03 06:19:56;;;;;;;25.30;12.63;;;2.10;99.90;;;;;;5085186;28;20070;-63
2022/12/03 06:22:22;;;;;;;20.00;10.27;;;2.10;99.90;;;;;;5094363;28;20040;-63
2022/12/03 06:24:49;;;;;;;32.15;13.00;;;2.10;99.90;;;;;;5093278;28;20044;-63
2022/12/03 06:27:16;;;;;;;26.90;11.88;;;2.10;99.90;;;;;;5094834;28;20040;-63
2022/12/03 06:29:43;;;;;;;19.20;8.02;;;2.10;99.90;;;;;;5093365;28;20478;-63
2022/12/03 06:32:10;;;;;;;26.85;11.73;;;2.10;99.90;;;;;;5087983;28;20443;-63
2022/12/03 06:34:37;;;;;;;21.85;8.75;;;2.10;99.90;;;;;;5086557;28;20036;-63
2022/12/03 06:37:03;;;;;;;21.45;9.82;;;2.20;99.90;;;;;;5093243;28;20090;-63
2022/12/03 06:39:30;;;;;;;25.20;10.05;;;2.10;99.90;;;;;;5089705;28;20594;-63
2022/12/03 06:42:00;;;;;;;28.42;11.25;;;2.10;99.90;;;;;;5094193;28;20047;-63
2022/12/03 06:44:27;;;;;;;16.95;7.47;;;2.10;99.90;;;;;;5093174;28;20048;-63
2022/12/03 06:46:54;;;;;;;25.17;11.23;;;2.10;99.90;;;;;;5094703;28;20090;-63
2022/12/03 06:49:20;;;;;;;22.13;9.68;;;2.20;99.90;;;;;;5106794;28;20039;-63
2022/12/03 06:51:47;;;;;;;18.10;7.95;;;2.10;99.90;;;;;;5091934;28;20040;-63
2022/12/03 06:54:14;;;;;;;17.58;7.95;;;2.20;99.90;;;;;;5087120;28;20562;-63
2022/12/03 06:56:41;;;;;;;20.15;9.85;;;2.20;99.90;;;;;;5097731;28;20489;-63
2022/12/03 06:59:11;;;;;;;25.77;10.10;;;2.10;99.90;;;;;;5093034;28;20044;-63
2022/12/03 07:01:38;;;;;;;27.85;11.13;;;2.10;99.90;;;;;;5099558;28;20044;-63
2022/12/03 07:04:05;;;;;;;22.98;11.05;;;2.10;99.90;;;;;;5089170;28;20040;-63
2022/12/03 07:06:31;;;;;;;24.77;10.63;;;2.10;99.90;;;;;;5093285;28;20488;-63
2022/12/03 07:08:58;;;;;;;28.05;11.27;;;2.10;99.90;;;;;;5091852;28;20040;-63
2022/12/03 07:11:30;;;;;;;26.08;10.35;;;2.20;99.90;;;;;;5097023;28;20028;-63
2022/12/03 07:14:01;;;;;;;26.00;10.63;;;2.20;99.90;;;;;;5092567;28;20101;-63
2022/12/03 07:16:31;;;;;;;24.55;10.60;;;2.20;99.90;;;;;;5092727;28;20058;-63
2022/12/03 07:18:58;;;;;;;;;;;2.10;99.90;;;;;;5106905;28;20504;-63
2022/12/03 07:21:25;;;;;;;22.63;10.32;;;2.10;99.90;;;;;;5093177;28;19920;-63
2022/12/03 07:23:52;;;;;;;25.58;11.68;;;2.10;99.90;;;;;;5092229;28;20071;-62
2022/12/03 07:26:18;;;;;;;24.70;10.98;;;2.10;99.90;;;;;;5090573;28;20106;-63
2022/12/03 07:28:47;;;;;;;18.75;8.75;;;2.10;99.90;;;;;;5077517;28;20606;-63
2022/12/03 07:31:14;;;;;;;24.08;11.02;;;2.10;99.90;;;;;;5091989;28;20066;-63
2022/12/03 07:33:41;;;;;;;26.63;12.85;;;2.10;99.90;;;;;;5100911;28;20036;-63
2022/12/03 07:36:08;;;;;;;29.48;12.95;;;2.10;99.90;;;;;;5102628;28;20097;-63
2022/12/03 07:38:35;;;;;;;27.27;11.75;;;2.10;99.90;;;;;;5092036;28;20074;-63
2022/12/03 07:41:02;;;;;;;24.58;11.13;;;2.10;99.90;;;;;;5092415;28;20177;-63
2022/12/03 07:43:29;;;;;;;21.90;11.27;;;2.20;99.90;;;;;;5091601;28;20036;-63
2022/12/03 07:45:56;;;;;;;28.98;12.73;;;2.20;99.90;;;;;;5092396;28;20098;-63
2022/12/03 07:48:22;;;;;;;31.40;13.30;;;2.20;99.90;;;;;;5090099;28;20094;-63
2022/12/03 07:50:49;;;;;;;18.90;10.45;;;2.20;99.90;;;;;;5111645;28;20096;-63
2022/12/03 07:53:16;;;;;;;28.67;12.02;;;2.20;99.90;;;;;;5088948;28;20381;-63
2022/12/03 07:55:43;;;;;;;27.70;11.90;;;2.10;99.90;;;;;;5092110;28;20043;-63
2022/12/03 07:58:11;;;;;;;24.48;11.27;;;2.10;99.90;;;;;;5092069;28;20041;-63
2022/12/03 08:00:37;;;;;;;19.13;8.40;;;2.10;99.90;;;;;;5086408;28;20481;-63
2022/12/03 08:03:04;;;;;;;32.45;12.23;;;2.10;99.90;;;;;;5104355;28;20036;-63
2022/12/03 08:05:31;;;;;;;44.63;16.90;;;2.20;99.90;;;;;;5111786;28;20049;-63
2022/12/03 08:07:57;;;;;;;35.33;14.65;;;2.20;99.90;;;;;;5113311;28;20071;-64
2022/12/03 08:10:25;;;;;;;37.10;16.13;;;2.20;99.90;;;;;;5098655;28;20036;-63
2022/12/03 08:12:52;;;;;;;31.85;13.10;;;2.30;99.90;;;;;;5090379;28;20047;-63
2022/12/03 08:15:23;;;;;;;23.02;10.10;;;2.30;99.90;;;;;;5091384;28;20043;-63
2022/12/03 08:17:55;;;;;;;22.58;10.55;;;2.40;99.90;;;;;;5088632;28;20052;-63
2022/12/03 08:20:25;;;;;;;23.05;9.77;;;2.40;99.90;;;;;;5091315;28;20051;-63
2022/12/03 08:22:52;;;;;;;21.40;9.93;;;2.40;99.90;;;;;;5087819;28;20113;-63
2022/12/03 08:25:23;;;;;;;;;;;2.50;99.90;;;;;;5086040;28;20086;-64
2022/12/03 08:28:10;;;;;;;35.25;12.48;;;2.50;99.90;;;;;;5091441;28;19920;-63
2022/12/03 08:30:37;;;;;;;26.73;12.15;;;2.50;99.90;;;;;;5091214;28;20497;-63
2022/12/03 08:33:24;;;;;;;22.40;11.05;;;2.60;99.90;;;;;;5091234;28;20035;-63
2022/12/03 08:35:51;;;;;;;28.90;12.00;;;2.50;99.90;;;;;;5087358;28;20040;-63
2022/12/03 08:38:21;;;;;;;17.08;7.90;;;2.60;99.90;;;;;;5106939;28;20039;-63
2022/12/03 08:40:50;;;;;;;27.77;10.85;;;2.60;99.90;;;;;;5102762;28;20032;-63
2022/12/03 08:43:24;;;;;;;24.30;10.65;;;2.60;99.90;;;;;;5086737;28;20060;-63
2022/12/03 08:45:53;;;;;;;18.85;9.57;;;2.50;99.90;;;;;;5102985;28;20454;-63
2022/12/03 08:48:35;;;;;;;29.35;11.55;;;2.50;99.90;;;;;;5112345;28;20403;-62
2022/12/03 08:51:19;;;;;;;34.83;11.57;;;2.50;99.90;;;;;;5110012;28;20048;-63
2022/12/03 08:53:58;;;;;;;24.05;11.43;;;2.60;99.90;;;;;;5088434;28;20101;-63
2022/12/03 08:56:29;;;;;;;29.60;10.70;;;2.70;99.90;;;;;;5091390;28;20048;-63
2022/12/03 08:59:24;;;;;;;26.58;11.65;;;2.60;99.90;;;;;;5090154;28;20125;-63
2022/12/03 09:01:54;;;;;;;23.85;11.00;;;2.70;99.90;;;;;;5085250;28;20040;-63
2022/12/03 09:04:38;;;;;;;28.65;12.15;;;2.70;99.90;;;;;;5088877;28;20086;-63
2022/12/03 09:07:05;;;;;;;24.67;11.82;;;2.70;99.90;;;;;;5089521;28;20036;-63
2022/12/03 09:09:33;;;;;;;23.63;8.60;;;2.70;99.90;;;;;;5084800;28;20106;-63
2022/12/03 09:12:01;;;;;;;24.40;10.40;;;2.80;99.90;;;;;;5088938;28;20566;-63
2022/12/03 09:14:27;;;;;;;28.13;12.30;;;2.80;99.90;;;;;;5088195;28;20476;-63
2022/12/03 09:16:55;;;;;;;17.92;8.05;;;2.80;99.90;;;;;;5081376;28;20071;-62
2022/12/03 09:19:24;;;;;;;26.83;11.80;;;2.70;99.90;;;;;;5088477;28;20499;-63
2022/12/03 09:21:52;;;;;;;26.90;11.30;;;2.70;99.90;;;;;;5089274;28;20098;-62
2022/12/03 09:24:20;;;;;;;23.13;11.13;;;2.80;99.90;;;;;;5090293;28;20074;-63
2022/12/03 09:26:46;;;;;;;;;;;2.80;99.90;;;;;;5091104;28;20036;-63
2022/12/03 09:29:13;;;;;;;26.67;11.77;;;2.80;99.90;;;;;;5088795;28;20380;-63
2022/12/03 09:31:40;;;;;;;23.75;10.60;;;2.90;99.90;;;;;;5091158;28;20028;-63
2022/12/03 09:34:09;;;;;;;23.35;11.48;;;2.90;99.90;;;;;;5086303;28;20032;-63
2022/12/03 09:36:36;;;;;;;24.77;11.52;;;2.90;99.90;;;;;;5088278;28;20152;-63
2022/12/03 09:39:03;;;;;;;25.92;11.52;;;2.90;99.90;;;;;;5071202;28;20542;-62
2022/12/03 09:41:30;;;;;;;26.90;11.45;;;3.00;99.90;;;;;;5088390;28;20043;-62
2022/12/03 09:43:57;;;;;;;26.17;12.18;;;3.00;99.90;;;;;;5087400;28;20090;-62
2022/12/03 09:46:34;;;;;;;29.20;12.23;;;2.90;99.90;;;;;;5094398;28;20400;-62
2022/12/03 09:49:03;;;;;;;29.30;11.63;;;2.90;99.90;;;;;;5091409;28;20111;-62
2022/12/03 09:51:33;;;;;;;28.73;11.82;;;2.90;99.90;;;;;;5084391;28;20093;-62
2022/12/03 09:54:02;;;;;;;25.92;12.02;;;2.90;99.90;;;;;;5089315;28;20131;-62
2022/12/03 09:56:29;;;;;;;24.20;10.43;;;2.90;99.90;;;;;;5088811;28;20071;-62
2022/12/03 09:58:56;;;;;;;25.23;11.88;;;3.00;99.90;;;;;;5072974;28;20074;-62
2022/12/03 10:01:23;;;;;;;;;;;3.00;99.90;;;;;;5080056;28;20047;-62
2022/12/03 10:03:55;;;;;;;27.58;10.68;;;2.90;99.90;;;;;;5090416;28;19920;-62
2022/12/03 10:06:22;;;;;;;29.58;12.43;;;2.90;99.90;;;;;;5070739;28;20040;-62
2022/12/03 10:08:53;;;;;;;29.88;12.32;;;2.90;99.90;;;;;;5090322;28;20040;-62
2022/12/03 10:11:24;;;;;;;28.10;12.48;;;2.90;99.90;;;;;;5084633;28;20077;-62
2022/12/03 10:13:52;;;;;;;31.08;11.43;;;2.80;99.90;;;;;;5090205;28;20047;-62
2022/12/03 10:16:20;;;;;;;35.58;14.35;;;2.80;99.90;;;;;;5089264;28;20052;-62
2022/12/03 10:18:53;;;;;;;26.92;12.75;;;2.80;99.90;;;;;;5090367;28;20439;-62
2022/12/03 10:21:24;;;;;;;26.65;11.23;;;2.80;99.90;;;;;;5086661;28;20036;-62
2022/12/03 10:24:22;;;;;;;32.45;14.05;;;2.80;99.90;;;;;;5070202;28;20047;-62
2022/12/03 10:26:51;;;;;;;27.60;11.90;;;2.80;99.90;;;;;;5071735;28;20125;-62
2022/12/03 10:29:41;;;;;;;26.88;12.32;;;2.90;99.90;;;;;;5088771;28;20443;-62
2022/12/03 10:32:10;;;;;;;23.40;10.55;;;2.90;99.90;;;;;;5079385;28;20043;-62
2022/12/03 10:34:41;;;;;;;32.42;11.13;;;2.90;99.90;;;;;;5083000;28;20101;-62
2022/12/03 10:37:11;;;;;;;28.50;12.85;;;3.00;99.90;;;;;;5091926;28;20036;-62
2022/12/03 10:40:11;;;;;;;25.60;11.73;;;3.00;99.90;;;;;;5089058;28;20055;-62
2022/12/03 10:42:39;;;;;;;27.83;11.95;;;3.10;99.90;;;;;;5071781;28;20048;-62
2022/12/03 10:45:21;;;;;;;24.33;11.23;;;3.10;99.90;;;;;;5085543;28;20105;-62
2022/12/03 10:48:03;;;;;;;27.58;11.23;;;3.10;99.90;;;;;;5099093;28;20110;-62
2022/12/03 10:50:31;;;;;;;24.55;11.90;;;3.20;99.90;;;;;;5109806;28;20040;-63
2022/12/03 10:52:58;;;;;;;;;;;3.20;99.90;;;;;;5092376;28;20098;-62
2022/12/03 10:55:51;;;;;;;15.60;7.57;;;3.20;99.90;;;;;;5099205;22;19942;-60
2022/12/03 11:02:30;;;;;;;21.02;8.00;;;3.20;99.90;;;;;;4998379;28;20034;-60
2022/12/03 11:04:57;;;;;;;18.17;7.93;;;3.20;99.90;;;;;;5010531;28;20077;-60
2022/12/03 11:07:25;;;;;;;18.33;8.70;;;3.30;99.90;;;;;;5088366;28;20110;-60
2022/12/03 11:09:54;;;;;;;19.33;9.18;;;3.40;99.90;;;;;;5084000;28;20483;-60
2022/12/03 11:12:25;;;;;;;24.00;9.55;;;3.50;99.90;;;;;;5071862;28;20036;-60
2022/12/03 11:14:55;;;;;;;17.23;8.82;;;3.50;99.90;;;;;;5073546;28;20037;-60
2022/12/03 11:17:38;;;;;;;21.38;9.93;;;3.50;99.90;;;;;;5072907;28;20040;-61
2022/12/03 11:20:24;;;;;;;20.35;9.25;;;3.60;99.90;;;;;;5072576;28;20409;-60
2022/12/03 11:22:55;;;;;;;16.92;9.02;;;3.60;99.90;;;;;;5079994;28;20052;-60
2022/12/03 11:25:24;;;;;;;19.25;9.20;;;3.60;99.90;;;;;;5073511;28;20040;-61
2022/12/03 11:28:10;;;;;;;18.48;9.00;;;3.60;99.90;;;;;;5072091;28;20037;-60
2022/12/03 11:30:52;;;;;;;17.90;8.60;;;3.70;99.90;;;;;;5082684;28;20040;-60
2022/12/03 11:33:21;;;;;;;23.70;9.60;;;3.70;99.90;;;;;;5091265;28;20032;-60
2022/12/03 11:36:01;;;;;;;22.42;11.55;;;3.70;99.90;;;;;;5085407;28;20056;-60
2022/12/03 11:38:37;;;;;;;21.08;9.88;;;3.60;99.90;;;;;;5092068;28;20093;-60
2022/12/03 11:41:13;;;;;;;17.58;8.13;;;3.60;99.90;;;;;;5092395;28;20184;-60
2022/12/03 11:44:23;;;;;;;17.38;9.00;;;3.60;99.90;;;;;;5092240;28;20040;-60
2022/12/03 11:46:50;;;;;;;17.30;9.02;;;3.60;99.90;;;;;;5072583;28;20040;-60
2022/12/03 11:49:33;;;;;;;24.00;9.35;;;3.60;99.90;;;;;;5084244;28;20493;-60
2022/12/03 11:52:03;;;;;;;20.50;9.45;;;3.70;99.90;;;;;;5080367;28;20041;-60
2022/12/03 11:54:33;;;;;;;19.85;9.25;;;3.70;99.90;;;;;;5081767;28;20063;-60
2022/12/03 11:57:01;;;;;;;20.15;9.52;;;3.80;99.90;;;;;;5085643;28;20058;-60
2022/12/03 11:59:28;;;;;;;17.83;9.45;;;3.80;99.90;;;;;;5091308;28;20044;-60
2022/12/03 12:01:54;;;;;;;22.88;10.23;;;3.40;99.90;;;;;;5091363;28;20097;-60
2022/12/03 12:04:33;;;;;;;24.45;9.07;;;4.00;99.90;;;;;;5076450;28;20045;-60
2022/12/03 12:07:01;;;;;;;19.83;9.73;;;4.00;99.90;;;;;;5083680;28;20412;-60
2022/12/03 12:09:50;;;;;;;17.63;8.75;;;4.00;99.90;;;;;;5091958;28;20048;-60
2022/12/03 12:12:28;;;;;;;24.23;10.85;;;4.10;99.90;;;;;;5082338;28;20526;-60
2022/12/03 12:14:55;;;;;;;20.13;9.15;;;4.20;99.90;;;;;;5090869;28;20381;-60
2022/12/03 12:17:34;;;;;;;18.60;9.55;;;4.10;99.90;;;;;;5084505;28;20484;-60
2022/12/03 12:20:30;;;;;;;22.83;10.38;;;4.10;99.90;;;;;;5078312;28;20040;-60
2022/12/03 12:23:21;;;;;;;23.02;10.93;;;4.10;99.90;;;;;;5063145;28;20509;-60
2022/12/03 12:25:48;;;;;;;18.17;9.48;;;4.10;99.90;;;;;;5076324;28;20064;-60
2022/12/03 12:28:20;;;;;;;24.52;10.48;;;4.10;99.90;;;;;;5076406;28;20082;-60
2022/12/03 12:30:47;;;;;;;22.20;10.77;;;4.00;99.90;;;;;;5079175;28;20542;-60
2022/12/03 12:33:21;;;;;;;21.20;10.40;;;4.00;99.90;;;;;;5080555;28;20111;-60
2022/12/03 12:35:49;;;;;;;20.45;9.93;;;4.00;99.90;;;;;;5080685;28;20091;-60
2022/12/03 12:38:20;;;;;;;;;;;4.00;99.90;;;;;;5082049;28;20032;-60
2022/12/03 12:40:49;;;;;;;21.98;10.05;;;4.00;99.90;;;;;;5079518;28;19952;-60
2022/12/03 12:43:20;;;;;;;23.08;9.88;;;4.10;99.90;;;;;;5061459;28;20060;-60
2022/12/03 12:45:53;;;;;;;19.85;9.70;;;3.80;99.90;;;;;;5065778;28;20116;-60
2022/12/03 12:48:24;;;;;;;22.42;10.15;;;3.70;99.90;;;;;;5091594;28;20128;-60
2022/12/03 12:51:06;;;;;;;22.63;11.15;;;3.50;99.90;;;;;;5069709;28;20037;-60
2022/12/03 12:53:35;;;;;;;25.25;11.00;;;3.60;99.90;;;;;;5075629;28;20497;-60
2022/12/03 12:56:23;;;;;;;22.25;9.70;;;3.70;99.90;;;;;;5070799;28;20554;-60
2022/12/03 12:58:50;;;;;;;22.90;10.60;;;3.70;99.90;;;;;;5069626;28;20520;-60
2022/12/03 13:01:30;;;;;;;26.85;11.00;;;3.80;99.90;;;;;;5071577;28;20451;-61
2022/12/03 13:03:58;;;;;;;24.67;10.43;;;3.80;99.90;;;;;;5070146;28;20040;-60
2022/12/03 13:06:26;;;;;;;;;;;3.80;99.90;;;;;;5071844;28;20041;-60
2022/12/03 13:08:54;;;;;;;22.90;10.52;;;3.80;99.90;;;;;;5065848;28;19974;-60
2022/12/03 13:11:23;;;;;;;21.02;9.82;;;3.80;99.90;;;;;;5071173;28;20056;-60
2022/12/03 13:13:51;;;;;;;24.08;10.88;;;3.80;99.90;;;;;;5069994;28;20098;-60
2022/12/03 13:16:30;;;;;;;23.23;9.80;;;3.80;99.90;;;;;;5069900;28;20759;-60
2022/12/03 13:18:59;;;;;;;25.17;11.60;;;3.90;99.90;;;;;;5069768;28;20052;-60